createdAt,value
2019-01-24T00:01:51.908Z,60.67
2019-01-24T00:07:06.900Z,63.67
2019-01-24T00:12:09.571Z,58.63
2019-01-24T00:17:31.740Z,65.30
2019-01-24T00:22:53.920Z,70.87
2019-01-24T00:28:16.134Z,72.57
2019-01-24T00:33:38.408Z,68.13
2019-01-24T00:39:00.608Z,85.80
2019-01-24T00:44:22.772Z,88.53
2019-01-24T00:49:44.945Z,89.23
2019-01-24T00:55:08.903Z,72.40
2019-01-24T01:00:31.090Z,86.03
2019-01-24T01:05:53.264Z,109.13
2019-01-24T01:11:08.327Z,78.77
2019-01-24T01:16:11.021Z,82.43
2019-01-24T01:21:13.686Z,76.07
2019-01-24T01:26:35.882Z,102.27
2019-01-24T01:31:58.057Z,97.20
2019-01-24T01:37:20.231Z,78.63
2019-01-24T01:42:42.422Z,90.97
2019-01-24T01:47:45.195Z,82.00
2019-01-24T01:53:07.371Z,71.03
2019-01-24T01:58:29.537Z,78.40
2019-01-24T02:03:51.704Z,74.10
2019-01-24T02:09:07.911Z,70.43
2019-01-24T02:14:30.092Z,70.63
2019-01-24T02:19:52.265Z,59.70
2019-01-24T02:25:14.438Z,62.63
2019-01-24T02:30:36.635Z,61.80
2019-01-24T02:35:39.314Z,70.10
2019-01-24T02:40:41.987Z,64.23
2019-01-24T02:46:04.179Z,50.23
2019-01-24T02:51:26.364Z,62.63
2019-01-24T02:56:48.543Z,46.30
2019-01-24T03:02:10.723Z,46.37
2019-01-24T03:07:33.662Z,40.80
2019-01-24T03:12:55.835Z,50.50
2019-01-24T03:18:18.013Z,41.33
2019-01-24T03:23:40.193Z,37.10
2019-01-24T03:29:02.401Z,45.80
2019-01-24T03:34:05.117Z,37.90
2019-01-24T03:39:27.301Z,35.57
2019-01-24T03:44:29.980Z,32.43
2019-01-24T03:49:52.149Z,41.17
2019-01-24T03:55:15.681Z,41.93
2019-01-24T04:00:21.299Z,26.83
2019-01-24T04:05:43.492Z,29.23
2019-01-24T04:10:59.287Z,30.07
2019-01-24T04:16:21.465Z,30.10
2019-01-24T04:21:43.637Z,30.83
2019-01-24T04:27:05.807Z,33.13
2019-01-24T04:32:27.984Z,32.27
2019-01-24T04:37:50.158Z,39.67
2019-01-24T04:43:12.335Z,32.73
2019-01-24T04:48:15.005Z,31.80
2019-01-24T04:53:37.206Z,39.17
2019-01-24T04:58:59.443Z,34.40
2019-01-24T05:04:21.627Z,29.87
2019-01-24T05:09:36.709Z,30.50
2019-01-24T05:14:58.905Z,36.13
2019-01-24T05:20:21.089Z,29.53
2019-01-24T05:25:43.263Z,26.70
2019-01-24T05:30:45.926Z,34.53
2019-01-24T05:36:08.108Z,29.50
2019-01-24T05:41:30.282Z,33.53
2019-01-24T05:46:52.444Z,23.67
2019-01-24T05:51:55.109Z,28.27
2019-01-24T05:57:17.283Z,44.30
2019-01-24T06:02:39.472Z,37.40
2019-01-24T06:07:55.212Z,35.07
2019-01-24T06:13:17.385Z,34.73
2019-01-24T06:18:39.563Z,36.67
2019-01-24T06:24:01.747Z,31.30
2019-01-24T06:29:04.527Z,33.83
2019-01-24T06:34:26.697Z,31.50
2019-01-24T06:39:48.872Z,30.13
2019-01-24T06:45:31.851Z,30.33
2019-01-24T06:50:54.035Z,41.37
2019-01-24T06:56:16.220Z,20.90
2019-01-24T07:01:38.418Z,33.33
2019-01-24T07:06:53.642Z,33.57
2019-01-24T07:12:15.833Z,31.40
2019-01-24T07:17:38.024Z,35.03
2019-01-24T07:23:00.207Z,36.77
2019-01-24T07:28:22.381Z,34.43
2019-01-24T07:33:44.555Z,27.43
2019-01-24T07:39:07.085Z,30.17
2019-01-24T07:44:09.770Z,39.27
2019-01-24T07:49:31.940Z,27.70
2019-01-24T07:54:54.127Z,25.13
2019-01-24T08:00:19.724Z,33.50
2019-01-24T08:05:42.575Z,25.90
2019-01-24T08:10:58.278Z,32.23
2019-01-24T08:16:20.475Z,24.70
2019-01-24T08:21:42.633Z,27.13
2019-01-24T08:27:04.831Z,23.67
2019-01-24T08:32:27.260Z,28.20
2019-01-24T08:37:29.926Z,28.03
2019-01-24T08:42:52.206Z,24.63
2019-01-24T08:48:14.385Z,42.57
2019-01-24T08:53:36.589Z,26.33
2019-01-24T08:58:58.772Z,21.70
2019-01-24T09:04:20.950Z,28.73
2019-01-24T09:09:35.949Z,33.13
2019-01-24T09:14:58.117Z,34.07
2019-01-24T09:20:00.798Z,38.60
2019-01-24T09:25:04.187Z,31.10
2019-01-24T09:30:11.028Z,43.67
2019-01-24T09:35:14.201Z,39.90
2019-01-24T09:40:38.428Z,50.37
2019-01-24T09:46:00.619Z,47.47
2019-01-24T09:51:22.811Z,41.07
2019-01-24T09:56:25.476Z,39.93
2019-01-24T10:01:28.147Z,43.20
2019-01-24T10:06:36.232Z,53.13
2019-01-24T10:11:35.396Z,43.10
2019-01-24T10:16:57.563Z,45.03
2019-01-24T10:22:00.246Z,44.20
2019-01-24T10:27:22.425Z,44.17
2019-01-24T10:32:44.813Z,47.60
2019-01-24T10:38:06.995Z,42.23
2019-01-24T10:43:09.665Z,43.43
2019-01-24T10:48:12.348Z,50.40
2019-01-24T10:53:34.528Z,47.43
2019-01-24T10:58:56.701Z,45.23
2019-01-24T11:04:18.908Z,47.10
2019-01-24T11:09:34.701Z,65.93
2019-01-24T11:14:56.876Z,51.37
2019-01-24T11:25:49.232Z,44.80
2019-01-24T11:31:11.413Z,53.97
2019-01-24T11:36:33.608Z,61.40
2019-01-24T11:41:55.790Z,56.10
2019-01-24T11:47:17.966Z,43.50
2019-01-24T11:52:40.139Z,41.43
2019-01-24T11:58:02.307Z,43.63
2019-01-24T12:03:24.504Z,50.03
2019-01-24T12:08:40.205Z,51.17
2019-01-24T12:14:02.394Z,54.93
2019-01-24T12:19:24.618Z,49.33
2019-01-24T12:24:46.803Z,42.97
2019-01-24T12:30:12.825Z,40.80
2019-01-24T12:35:35.171Z,46.20
2019-01-24T12:40:57.347Z,47.37
2019-01-24T12:46:00.022Z,39.53
2019-01-24T12:51:02.781Z,49.97
2019-01-24T12:56:05.482Z,42.90
2019-01-24T13:01:08.157Z,40.07
2019-01-24T13:06:10.883Z,40.70
2019-01-24T13:11:26.173Z,49.70
2019-01-24T13:16:28.928Z,59.47
2019-01-24T13:21:51.111Z,44.47
2019-01-24T13:27:13.298Z,46.90
2019-01-24T13:32:35.473Z,44.60
2019-01-24T13:37:38.150Z,44.77
2019-01-24T13:43:01.033Z,51.20
2019-01-24T13:48:23.220Z,49.57
2019-01-24T13:53:45.420Z,50.87
2019-01-24T13:59:07.616Z,40.07
2019-01-24T14:04:33.651Z,44.63
2019-01-24T14:09:49.400Z,54.53
2019-01-24T14:15:33.556Z,41.03
2019-01-24T14:20:55.722Z,70.80
2019-01-24T14:26:17.938Z,53.10
2019-01-24T14:31:20.677Z,53.90
2019-01-24T14:36:43.062Z,47.83
2019-01-24T14:41:45.736Z,41.23
2019-01-24T14:47:07.939Z,41.47
2019-01-24T14:52:30.244Z,45.60
2019-01-24T14:57:52.656Z,53.50
2019-01-24T15:02:55.553Z,40.13
2019-01-24T15:08:10.993Z,51.17
2019-01-24T15:13:13.671Z,49.77
2019-01-24T15:18:16.342Z,54.57
2019-01-24T15:23:19.017Z,54.87
2019-01-24T15:28:21.915Z,54.30
2019-01-24T15:33:24.615Z,49.30
2019-01-24T15:38:47.269Z,45.27
2019-01-24T15:44:09.495Z,50.23
2019-01-24T15:49:31.753Z,64.03
2019-01-24T15:54:54.114Z,99.90
2019-01-24T16:00:37.027Z,52.77
2019-01-24T16:05:59.218Z,56.93
2019-01-24T16:11:01.948Z,54.60
2019-01-24T16:16:24.112Z,54.33
2019-01-24T16:21:46.294Z,51.80
2019-01-24T16:27:08.509Z,43.40
2019-01-24T16:32:30.803Z,48.50
2019-01-24T16:37:54.164Z,48.17
2019-01-24T16:43:16.386Z,57.43
2019-01-24T16:48:38.567Z,70.53
2019-01-24T16:54:00.741Z,53.33
2019-01-24T16:59:22.926Z,51.53
2019-01-24T17:04:45.099Z,63.33
2019-01-24T17:09:59.886Z,55.17
2019-01-24T17:15:22.064Z,48.30
2019-01-24T17:20:25.513Z,60.33
2019-01-24T17:25:47.689Z,48.20
2019-01-24T17:31:09.864Z,42.97
2019-01-24T17:36:32.048Z,51.63
2019-01-24T17:41:54.228Z,52.10
2019-01-24T17:47:17.846Z,54.30
2019-01-24T17:52:40.086Z,54.53
2019-01-24T18:03:52.208Z,53.10
2019-01-24T18:09:07.987Z,58.53
2019-01-24T18:14:30.199Z,49.53
2019-01-24T18:19:52.371Z,58.63
2019-01-24T18:25:14.565Z,49.90
2019-01-24T18:30:36.980Z,49.13
2019-01-24T18:35:39.650Z,45.93
2019-01-24T18:41:08.411Z,45.47
2019-01-24T18:46:26.111Z,46.70
2019-01-24T18:51:48.308Z,43.37
2019-01-24T18:57:10.521Z,51.67
2019-01-24T19:02:13.217Z,52.23
2019-01-24T19:07:28.441Z,40.90
2019-01-24T19:12:31.143Z,44.00
2019-01-24T19:17:54.294Z,56.17
2019-01-24T19:29:06.713Z,54.43
2019-01-24T19:34:28.922Z,47.27
2019-01-24T19:39:31.622Z,50.77
2019-01-24T19:44:53.812Z,52.43
2019-01-24T19:50:18.240Z,49.60
2019-01-24T19:55:40.797Z,43.50
2019-01-24T20:01:25.431Z,53.90
2019-01-24T20:06:42.130Z,53.83
2019-01-24T20:12:04.468Z,58.87
2019-01-24T20:17:26.645Z,48.30
2019-01-24T20:22:49.414Z,46.07
2019-01-24T20:28:11.594Z,52.93
2019-01-24T20:33:33.788Z,45.40
2019-01-24T20:38:55.951Z,61.50
2019-01-24T20:43:58.641Z,63.57
2019-01-24T20:49:20.852Z,61.80
2019-01-24T20:54:43.074Z,60.60
2019-01-24T21:00:28.384Z,66.87
2019-01-24T21:05:31.056Z,68.03
2019-01-24T21:10:46.536Z,62.00
2019-01-24T21:16:08.731Z,60.53
2019-01-24T21:21:30.958Z,53.23
2019-01-24T21:26:53.152Z,61.23
2019-01-24T21:32:15.358Z,64.70
2019-01-24T21:37:37.563Z,58.53
2019-01-24T21:42:59.747Z,61.53
2019-01-24T21:48:21.932Z,60.87
2019-01-24T21:53:44.102Z,55.50
2019-01-24T21:59:06.301Z,65.10
2019-01-24T22:04:28.546Z,59.07
2019-01-24T22:09:31.314Z,53.90
2019-01-24T22:14:53.532Z,65.93
2019-01-24T22:20:15.968Z,63.80
2019-01-24T22:25:38.144Z,62.07
2019-01-24T22:31:00.564Z,69.40
2019-01-24T22:36:03.246Z,58.90
2019-01-24T22:41:25.429Z,60.40
2019-01-24T22:46:47.618Z,59.27
2019-01-24T22:52:09.801Z,57.93
2019-01-24T22:57:31.987Z,63.30
2019-01-24T23:02:54.159Z,70.93
2019-01-24T23:08:10.789Z,59.93
2019-01-24T23:13:32.995Z,60.33
2019-01-24T23:18:55.230Z,69.17
2019-01-24T23:23:57.921Z,82.10
2019-01-24T23:29:00.645Z,56.83
2019-01-24T23:34:22.861Z,65.37
2019-01-24T23:39:51.360Z,68.97
2019-01-24T23:45:09.137Z,63.20
2019-01-24T23:50:31.318Z,68.53
2019-01-24T23:55:53.535Z,66.00
